createdAt,value
2023-02-03T00:01:57.990Z,77641.09
2023-02-03T00:04:24.720Z,77639.00
2023-02-03T00:06:51.581Z,77632.69
2023-02-03T00:09:18.771Z,77628.50
2023-02-03T00:11:45.586Z,77634.81
2023-02-03T00:14:12.347Z,77666.28
2023-02-03T00:16:39.119Z,77630.59
2023-02-03T00:19:05.874Z,77603.31
2023-02-03T00:21:32.839Z,77601.22
2023-02-03T00:23:59.463Z,77592.84
2023-02-03T00:26:28.585Z,77594.94
2023-02-03T00:28:55.560Z,77611.72
2023-02-03T00:31:24.458Z,77662.06
2023-02-03T00:33:56.468Z,77653.69
2023-02-03T00:36:23.609Z,77628.50
2023-02-03T00:38:50.799Z,77605.41
2023-02-03T00:41:18.164Z,77599.13
2023-02-03T00:43:45.165Z,77634.81
2023-02-03T00:46:12.031Z,77641.09
2023-02-03T00:48:38.851Z,77653.69
2023-02-03T00:51:06.210Z,77647.38
2023-02-03T00:53:33.140Z,77657.88
2023-02-03T00:56:00.337Z,77649.50
2023-02-03T00:58:27.011Z,77649.50
2023-02-03T01:00:57.828Z,77615.91
2023-02-03T01:03:25.455Z,77620.09
2023-02-03T01:05:52.303Z,77636.91
2023-02-03T01:08:20.064Z,77626.41
2023-02-03T01:10:46.895Z,77601.22
2023-02-03T01:13:13.771Z,77624.31
2023-02-03T01:15:49.703Z,77615.91
2023-02-03T01:18:16.523Z,77611.72
2023-02-03T01:20:44.449Z,77588.63
2023-02-03T01:23:11.304Z,77567.66
2023-02-03T01:25:38.070Z,77557.16
2023-02-03T01:28:06.159Z,77552.97
2023-02-03T01:30:33.530Z,77540.38
2023-02-03T01:33:00.377Z,77527.78
2023-02-03T01:35:27.321Z,77523.59
2023-02-03T01:37:54.122Z,77567.66
2023-02-03T01:40:20.978Z,77576.03
2023-02-03T01:42:47.749Z,77578.13
2023-02-03T01:45:14.513Z,77580.25
2023-02-03T01:47:52.742Z,77555.06
2023-02-03T01:50:31.808Z,77531.97
2023-02-03T01:53:05.823Z,77527.78
2023-02-03T01:55:38.797Z,77508.91
2023-02-03T01:58:10.013Z,77515.19
2023-02-03T02:00:36.705Z,77567.66
2023-02-03T02:03:05.237Z,77573.94
2023-02-03T02:05:38.078Z,77544.56
2023-02-03T02:08:06.600Z,77540.38
2023-02-03T02:10:35.229Z,77525.69
2023-02-03T02:13:04.875Z,77521.50
2023-02-03T02:15:48.901Z,77544.56
2023-02-03T02:18:33.764Z,77561.34
2023-02-03T02:21:19.271Z,77557.16
2023-02-03T02:23:48.967Z,77557.16
2023-02-03T02:26:39.045Z,77557.16
2023-02-03T02:29:36.310Z,77561.34
2023-02-03T02:32:23.988Z,77559.25
2023-02-03T02:34:59.780Z,77559.25
2023-02-03T02:37:49.851Z,77544.56
2023-02-03T02:40:29.491Z,77534.06
2023-02-03T02:42:58.993Z,77540.38
2023-02-03T02:45:37.329Z,77540.38
2023-02-03T02:48:40.340Z,77534.06
2023-02-03T02:51:10.052Z,77536.19
2023-02-03T02:53:44.987Z,77540.38
2023-02-03T02:56:15.755Z,77536.19
2023-02-03T02:58:47.212Z,77544.56
2023-02-03T03:01:15.326Z,77544.56
2023-02-03T03:03:45.141Z,77544.56
2023-02-03T03:06:33.527Z,77611.72
2023-02-03T03:09:07.768Z,77605.41
2023-02-03T03:11:43.610Z,77580.25
2023-02-03T03:14:12.947Z,77569.75
2023-02-03T03:16:46.781Z,77578.13
2023-02-03T03:19:19.088Z,77569.75
2023-02-03T03:21:51.449Z,77569.75
2023-02-03T03:24:26.937Z,77573.94
2023-02-03T03:26:54.192Z,77563.44
2023-02-03T03:29:27.381Z,77573.94
2023-02-03T03:31:54.399Z,77567.66
2023-02-03T03:34:21.742Z,77578.13
2023-02-03T03:36:58.265Z,77578.13
2023-02-03T03:39:43.131Z,77586.53
2023-02-03T03:42:40.892Z,77573.94
2023-02-03T03:45:32.297Z,77571.84
2023-02-03T03:48:06.813Z,77573.94
2023-02-03T03:50:38.449Z,77578.13
2023-02-03T03:53:07.564Z,77597.03
2023-02-03T03:55:37.166Z,77586.53
2023-02-03T03:58:07.959Z,77594.94
2023-02-03T04:00:37.818Z,77594.94
2023-02-03T04:03:22.136Z,77599.13
2023-02-03T04:05:48.956Z,77594.94
2023-02-03T04:08:15.785Z,77592.84
2023-02-03T04:10:43.859Z,77573.94
2023-02-03T04:13:12.604Z,77565.56
2023-02-03T04:15:39.504Z,77576.03
2023-02-03T04:18:06.408Z,77586.53
2023-02-03T04:20:33.719Z,77594.94
2023-02-03T04:23:00.826Z,77594.94
2023-02-03T04:25:27.767Z,77599.13
2023-02-03T04:27:55.504Z,77594.94
2023-02-03T04:30:22.845Z,77613.81
2023-02-03T04:32:49.715Z,77607.53
2023-02-03T04:35:16.646Z,77611.72
2023-02-03T04:37:43.482Z,77613.81
2023-02-03T04:40:11.162Z,77599.13
2023-02-03T04:42:38.994Z,77611.72
2023-02-03T04:45:07.556Z,77607.53
2023-02-03T04:47:34.210Z,77601.22
2023-02-03T04:50:00.987Z,77609.63
2023-02-03T04:52:27.783Z,77603.31
2023-02-03T04:54:54.425Z,77597.03
2023-02-03T04:57:21.182Z,77607.53
2023-02-03T04:59:47.889Z,77611.72
2023-02-03T05:02:14.873Z,77607.53
2023-02-03T05:04:41.968Z,77605.41
2023-02-03T05:07:09.817Z,77597.03
2023-02-03T05:09:36.586Z,77594.94
2023-02-03T05:12:03.645Z,77599.13
2023-02-03T05:14:30.489Z,77590.72
2023-02-03T05:16:57.404Z,77588.63
2023-02-03T05:19:24.134Z,77592.84
2023-02-03T05:21:51.769Z,77588.63
2023-02-03T05:24:18.560Z,77601.22
2023-02-03T05:26:45.439Z,77605.41
2023-02-03T05:29:12.110Z,77601.22
2023-02-03T05:31:38.938Z,77609.63
2023-02-03T05:34:05.973Z,77607.53
2023-02-03T05:36:32.759Z,77609.63
2023-02-03T05:38:59.387Z,77607.53
2023-02-03T05:41:44.685Z,77611.72
2023-02-03T05:44:11.745Z,77620.09
2023-02-03T05:46:38.436Z,77622.22
2023-02-03T05:49:05.367Z,77622.22
2023-02-03T05:51:32.140Z,77628.50
2023-02-03T05:53:58.948Z,77630.59
2023-02-03T05:56:26.612Z,77630.59
2023-02-03T05:58:53.607Z,77624.31
2023-02-03T06:01:20.584Z,77626.41
2023-02-03T06:03:48.069Z,77620.09
2023-02-03T06:06:15.757Z,77611.72
2023-02-03T06:08:43.154Z,77607.53
2023-02-03T06:11:11.378Z,77622.22
2023-02-03T06:13:38.370Z,77691.47
2023-02-03T06:16:07.915Z,77662.06
2023-02-03T06:18:34.700Z,77737.63
2023-02-03T06:21:01.766Z,77754.41
2023-02-03T06:23:28.781Z,77699.84
2023-02-03T06:25:55.707Z,77687.25
2023-02-03T06:28:22.867Z,77683.06
2023-02-03T06:30:52.216Z,77676.75
2023-02-03T06:33:20.058Z,77670.47
2023-02-03T06:35:46.836Z,77649.50
2023-02-03T06:38:13.627Z,77645.28
2023-02-03T06:40:40.396Z,77641.09
2023-02-03T06:43:07.515Z,77630.59
2023-02-03T06:45:34.699Z,77641.09
2023-02-03T06:48:01.641Z,77641.09
2023-02-03T06:50:28.865Z,77645.28
2023-02-03T06:52:56.301Z,77641.09
2023-02-03T06:55:25.713Z,77636.91
2023-02-03T06:57:52.446Z,77628.50
2023-02-03T07:00:19.967Z,77620.09
2023-02-03T07:02:57.083Z,77615.91
2023-02-03T07:05:24.759Z,77620.09
2023-02-03T07:07:52.303Z,77609.63
2023-02-03T07:10:19.768Z,77609.63
2023-02-03T07:12:46.865Z,77605.41
2023-02-03T07:15:14.023Z,77603.31
2023-02-03T07:17:40.886Z,77615.91
2023-02-03T07:20:08.784Z,77607.53
2023-02-03T07:22:36.993Z,77590.72
2023-02-03T07:25:05.404Z,77588.63
2023-02-03T07:27:32.591Z,77571.84
2023-02-03T07:29:59.579Z,77565.56
2023-02-03T07:32:27.033Z,77559.25
2023-02-03T07:34:55.353Z,77557.16
2023-02-03T07:37:22.345Z,77548.75
2023-02-03T07:39:49.077Z,77550.88
2023-02-03T07:42:16.291Z,77544.56
2023-02-03T07:44:45.818Z,77536.19
2023-02-03T07:47:14.382Z,77536.19
2023-02-03T07:49:41.191Z,77536.19
2023-02-03T07:52:08.259Z,77531.97
2023-02-03T07:54:35.043Z,77519.38
2023-02-03T07:57:01.903Z,77657.88
2023-02-03T07:59:28.695Z,77657.88
2023-02-03T08:01:56.457Z,77636.91
2023-02-03T08:04:24.389Z,77641.09
2023-02-03T08:06:51.353Z,77649.50
2023-02-03T08:09:18.099Z,77659.97
2023-02-03T08:11:44.861Z,77657.88
2023-02-03T08:14:11.812Z,77662.06
2023-02-03T08:16:38.534Z,77659.97
2023-02-03T08:19:05.767Z,77653.69
2023-02-03T08:21:32.440Z,77657.88
2023-02-03T08:23:59.258Z,77620.09
2023-02-03T08:26:26.291Z,77647.38
2023-02-03T08:28:52.930Z,77674.66
2023-02-03T08:31:19.775Z,77693.56
2023-02-03T08:33:46.678Z,77699.84
2023-02-03T08:36:13.802Z,77697.75
2023-02-03T08:38:41.888Z,77666.28
2023-02-03T08:41:14.047Z,77680.97
2023-02-03T08:43:41.125Z,77649.50
2023-02-03T08:46:10.467Z,77622.22
2023-02-03T08:48:37.709Z,77611.72
2023-02-03T08:51:16.955Z,77618.00
2023-02-03T08:53:43.980Z,77634.81
2023-02-03T08:56:12.694Z,77597.03
2023-02-03T08:58:39.685Z,77592.84
2023-02-03T09:01:16.105Z,77594.94
2023-02-03T09:03:42.994Z,77578.13
2023-02-03T09:06:13.204Z,77584.44
2023-02-03T09:08:40.117Z,77573.94
2023-02-03T09:11:14.798Z,77561.34
2023-02-03T09:13:45.986Z,77563.44
2023-02-03T09:16:14.000Z,77569.75
2023-02-03T09:18:40.874Z,77578.13
2023-02-03T09:21:13.949Z,77586.53
2023-02-03T09:23:47.720Z,77586.53
2023-02-03T09:26:16.097Z,77597.03
2023-02-03T09:28:44.435Z,77594.94
2023-02-03T09:31:14.099Z,77594.94
2023-02-03T09:33:41.481Z,77607.53
2023-02-03T09:36:08.642Z,77607.53
2023-02-03T09:38:35.590Z,77607.53
2023-02-03T09:41:11.683Z,77605.41
2023-02-03T09:44:00.345Z,77599.13
2023-02-03T09:46:32.761Z,77594.94
2023-02-03T09:49:02.900Z,77599.13
2023-02-03T09:51:36.295Z,77605.41
2023-02-03T09:54:23.170Z,77599.13
2023-02-03T09:56:53.315Z,77601.22
2023-02-03T09:59:20.102Z,77599.13
2023-02-03T10:01:57.324Z,77607.53
2023-02-03T10:04:40.070Z,77586.53
2023-02-03T10:07:20.200Z,77582.34
2023-02-03T10:10:11.502Z,77592.84
2023-02-03T10:12:51.738Z,77582.34
2023-02-03T10:15:25.552Z,77569.75
2023-02-03T10:18:05.381Z,77565.56
2023-02-03T10:20:47.331Z,77567.66
2023-02-03T10:23:18.445Z,77573.94
2023-02-03T10:25:57.372Z,77578.13
2023-02-03T10:28:30.184Z,77573.94
2023-02-03T10:30:59.901Z,77573.94
2023-02-03T10:33:29.397Z,77569.75
2023-02-03T10:36:19.558Z,77563.44
2023-02-03T10:38:52.223Z,77565.56
2023-02-03T10:41:21.363Z,77569.75
2023-02-03T10:43:53.167Z,77578.13
2023-02-03T10:46:39.439Z,77586.53
2023-02-03T10:49:06.386Z,77594.94
2023-02-03T10:51:45.552Z,77607.53
2023-02-03T10:54:32.471Z,77613.81
2023-02-03T10:57:11.571Z,77615.91
2023-02-03T10:59:43.625Z,77618.00
2023-02-03T11:02:24.478Z,77626.41
2023-02-03T11:05:17.272Z,77632.69
2023-02-03T11:07:44.596Z,77634.81
2023-02-03T11:10:34.299Z,77624.31
2023-02-03T11:13:22.838Z,77643.19
2023-02-03T11:15:58.747Z,77653.69
2023-02-03T11:18:30.170Z,77662.06
2023-02-03T11:20:57.811Z,77674.66
2023-02-03T11:23:24.713Z,77678.88
2023-02-03T11:25:51.881Z,77668.38
2023-02-03T11:28:18.959Z,77674.66
2023-02-03T11:30:56.838Z,77668.38
2023-02-03T11:33:27.783Z,77662.06
2023-02-03T11:35:59.045Z,77651.59
2023-02-03T11:38:38.785Z,77653.69
2023-02-03T11:41:05.811Z,77653.69
2023-02-03T11:43:33.635Z,77643.19
2023-02-03T11:46:03.620Z,77634.81
2023-02-03T11:48:48.559Z,77618.00
2023-02-03T11:51:24.539Z,77613.81
2023-02-03T11:54:17.212Z,77611.72
2023-02-03T11:57:03.701Z,77611.72
2023-02-03T11:59:57.541Z,77603.31
2023-02-03T12:02:59.393Z,77615.91
2023-02-03T12:05:32.402Z,77611.72
2023-02-03T12:08:02.291Z,77615.91
2023-02-03T12:10:50.686Z,77620.09
2023-02-03T12:13:29.442Z,77607.53
2023-02-03T12:16:18.911Z,77603.31
2023-02-03T12:18:55.452Z,77607.53
2023-02-03T12:21:34.255Z,77609.63
2023-02-03T12:24:07.564Z,77611.72
2023-02-03T12:27:03.218Z,77607.53
2023-02-03T12:29:40.311Z,77615.91
2023-02-03T12:32:20.167Z,77622.22
2023-02-03T12:34:54.416Z,77615.91
2023-02-03T12:37:34.104Z,77632.69
2023-02-03T12:40:17.712Z,77645.28
2023-02-03T12:42:52.129Z,77645.28
2023-02-03T12:45:24.435Z,77647.38
2023-02-03T12:48:12.136Z,77649.50
2023-02-03T12:50:46.026Z,77657.88
2023-02-03T12:53:30.445Z,77666.28
2023-02-03T12:56:22.608Z,77664.19
2023-02-03T12:58:56.665Z,77662.06
2023-02-03T13:01:28.479Z,77678.88
2023-02-03T13:04:17.419Z,77687.25
2023-02-03T13:07:13.355Z,77683.06
2023-02-03T13:09:44.613Z,77683.06
2023-02-03T13:12:25.185Z,77695.66
2023-02-03T13:15:19.208Z,77687.25
2023-02-03T13:17:55.699Z,77691.47
2023-02-03T13:20:25.861Z,77691.47
2023-02-03T13:22:53.383Z,77695.66
2023-02-03T13:25:20.474Z,77710.34
2023-02-03T13:27:58.192Z,77712.44
2023-02-03T13:30:45.280Z,77722.94
2023-02-03T13:33:36.661Z,77714.53
2023-02-03T13:36:06.641Z,77720.84
2023-02-03T13:38:58.440Z,77787.97
2023-02-03T13:41:37.303Z,77775.41
2023-02-03T13:44:05.271Z,77756.50
2023-02-03T13:46:35.390Z,77760.72
2023-02-03T13:49:06.759Z,77737.63
2023-02-03T13:51:39.455Z,77741.81
2023-02-03T13:54:12.815Z,77729.22
2023-02-03T13:56:40.007Z,77733.44
2023-02-03T13:59:16.313Z,77739.72
2023-02-03T14:01:43.853Z,77743.91
2023-02-03T14:04:32.220Z,77739.72
2023-02-03T14:07:02.458Z,77743.91
2023-02-03T14:09:33.995Z,77733.44
2023-02-03T14:12:30.764Z,77729.22
2023-02-03T14:15:04.846Z,77729.22
2023-02-03T14:17:34.784Z,77725.03
2023-02-03T14:20:03.319Z,77731.31
2023-02-03T14:22:31.883Z,77800.56
2023-02-03T14:25:06.330Z,77777.50
2023-02-03T14:27:33.427Z,77787.97
2023-02-03T14:30:03.216Z,77777.50
2023-02-03T14:32:48.442Z,77779.59
2023-02-03T14:35:21.901Z,77779.59
2023-02-03T14:38:00.133Z,77779.59
2023-02-03T14:40:42.558Z,77821.56
2023-02-03T14:43:39.206Z,77817.38
2023-02-03T14:46:18.448Z,77808.97
2023-02-03T14:49:07.236Z,77800.56
2023-02-03T14:51:56.000Z,77804.78
2023-02-03T14:55:05.310Z,77806.88
2023-02-03T14:57:41.643Z,77808.97
2023-02-03T15:00:22.054Z,77808.97
2023-02-03T15:03:09.204Z,77802.69
2023-02-03T15:05:41.274Z,77808.97
2023-02-03T15:08:41.539Z,77796.38
2023-02-03T15:11:28.602Z,77808.97
2023-02-03T15:13:58.533Z,77804.78
2023-02-03T15:16:26.311Z,77806.88
2023-02-03T15:18:59.349Z,77811.06
2023-02-03T15:21:26.723Z,77817.38
2023-02-03T15:23:54.284Z,77825.75
2023-02-03T15:26:25.059Z,77825.75
2023-02-03T15:29:02.768Z,77832.06
2023-02-03T15:31:32.519Z,77840.44
2023-02-03T15:34:14.673Z,77840.44
2023-02-03T15:36:51.918Z,77844.66
2023-02-03T15:39:21.489Z,77855.13
2023-02-03T15:41:52.130Z,77859.34
2023-02-03T15:44:31.795Z,77863.53
2023-02-03T15:47:03.110Z,77871.94
2023-02-03T15:49:41.800Z,77880.31
2023-02-03T15:52:21.132Z,77884.50
2023-02-03T15:54:54.732Z,77897.09
2023-02-03T15:57:27.811Z,77903.41
2023-02-03T15:59:59.306Z,77911.81
2023-02-03T16:02:39.293Z,77918.09
2023-02-03T16:05:15.767Z,77928.59
2023-02-03T16:07:43.150Z,77926.50
2023-02-03T16:10:34.405Z,77939.09
2023-02-03T16:13:23.206Z,77945.38
2023-02-03T16:16:02.215Z,77957.97
2023-02-03T16:18:29.244Z,77964.25
2023-02-03T16:20:56.752Z,77970.56
2023-02-03T16:23:27.620Z,77987.34
2023-02-03T16:26:04.049Z,77993.66
2023-02-03T16:28:49.531Z,78004.13
2023-02-03T16:31:40.669Z,78014.63
2023-02-03T16:34:35.980Z,78014.63
2023-02-03T16:37:30.211Z,78020.94
2023-02-03T16:40:16.280Z,78018.81
2023-02-03T16:43:02.058Z,78027.22
2023-02-03T16:45:47.556Z,78025.13
2023-02-03T16:48:32.999Z,78014.63
2023-02-03T16:51:11.506Z,78014.63
2023-02-03T16:53:38.297Z,78016.72
2023-02-03T16:56:05.729Z,78018.81
2023-02-03T16:58:32.682Z,78018.81
2023-02-03T17:01:02.981Z,78014.63
2023-02-03T17:03:30.015Z,78012.53
2023-02-03T17:05:57.694Z,78027.22
2023-02-03T17:08:26.141Z,78048.22
2023-02-03T17:10:53.100Z,78054.50
2023-02-03T17:13:22.039Z,78069.19
2023-02-03T17:15:52.787Z,78069.19
2023-02-03T17:18:19.698Z,78077.59
2023-02-03T17:20:46.996Z,78073.41
2023-02-03T17:23:16.410Z,78079.69
2023-02-03T17:25:50.544Z,78081.78
2023-02-03T17:28:17.709Z,78077.59
2023-02-03T17:30:45.208Z,78081.78
2023-02-03T17:33:12.565Z,78083.88
2023-02-03T17:35:44.141Z,78090.19
2023-02-03T17:38:13.429Z,78102.78
2023-02-03T17:54:37.181Z,78106.97
2023-02-03T17:57:05.231Z,78111.16
2023-02-03T17:59:34.194Z,78106.97
2023-02-03T18:02:06.337Z,78109.06
2023-02-03T18:04:33.307Z,78115.38
2023-02-03T18:07:00.184Z,78106.97
2023-02-03T18:09:27.081Z,78165.72
2023-02-03T18:11:54.338Z,78159.44
2023-02-03T18:14:21.263Z,78153.13
2023-02-03T18:16:48.100Z,78157.34
2023-02-03T18:19:16.328Z,78155.25
2023-02-03T18:21:44.600Z,78155.25
2023-02-03T18:24:13.652Z,78165.72
2023-02-03T18:26:51.705Z,78161.53
2023-02-03T18:29:19.553Z,78165.72
2023-02-03T18:31:46.998Z,78172.03
2023-02-03T18:34:16.122Z,78176.22
2023-02-03T18:36:43.077Z,78188.81
2023-02-03T18:39:12.338Z,78197.22
2023-02-03T18:41:39.744Z,78195.13
2023-02-03T18:44:06.945Z,78205.59
2023-02-03T18:46:34.077Z,78203.50
2023-02-03T18:49:01.441Z,78211.91
2023-02-03T18:51:30.161Z,78211.91
2023-02-03T18:53:59.043Z,78369.31
2023-02-03T18:56:35.058Z,78339.94
2023-02-03T18:59:08.511Z,78321.03
2023-02-03T19:01:36.278Z,78289.56
2023-02-03T19:04:03.769Z,78287.47
2023-02-03T19:06:32.860Z,78279.06
2023-02-03T19:09:00.738Z,78270.66
2023-02-03T19:11:27.746Z,78260.19
2023-02-03T19:13:54.467Z,78274.88
2023-02-03T19:16:21.622Z,78270.66
2023-02-03T19:18:48.409Z,78270.66
2023-02-03T19:21:15.363Z,78266.47
2023-02-03T19:23:43.022Z,78262.28
2023-02-03T19:26:10.559Z,78255.97
2023-02-03T19:28:40.102Z,78258.06
2023-02-03T19:31:12.276Z,78264.38
2023-02-03T19:33:39.036Z,78262.28
2023-02-03T19:36:07.381Z,78262.28
2023-02-03T19:38:34.908Z,78258.06
2023-02-03T19:41:02.554Z,78260.19
2023-02-03T19:43:32.778Z,78264.38
2023-02-03T19:45:59.433Z,78262.28
2023-02-03T19:48:26.271Z,78258.06
2023-02-03T19:50:53.043Z,78260.19
2023-02-03T19:53:20.223Z,78253.88
2023-02-03T19:55:47.290Z,78266.47
2023-02-03T19:58:14.755Z,78266.47
2023-02-03T20:00:42.918Z,78270.66
2023-02-03T20:03:10.128Z,78268.56
2023-02-03T20:05:37.638Z,78266.47
2023-02-03T20:08:04.724Z,78266.47
2023-02-03T20:10:33.618Z,78266.47
2023-02-03T20:13:00.825Z,78262.28
2023-02-03T20:15:27.558Z,78262.28
2023-02-03T20:17:54.369Z,78258.06
2023-02-03T20:20:21.260Z,78260.19
2023-02-03T20:22:48.618Z,78253.88
2023-02-03T20:25:16.432Z,78249.69
2023-02-03T20:27:43.129Z,78258.06
2023-02-03T20:30:10.975Z,78266.47
2023-02-03T20:32:37.608Z,78272.75
2023-02-03T20:35:06.198Z,78283.25
2023-02-03T20:37:33.065Z,78287.47
2023-02-03T20:39:59.764Z,78300.06
2023-02-03T20:42:26.397Z,78312.66
2023-02-03T20:44:53.168Z,78304.25
2023-02-03T20:47:21.408Z,78308.44
2023-02-03T20:49:49.660Z,78312.66
2023-02-03T20:52:19.958Z,78318.94
2023-02-03T20:54:47.939Z,78318.94
2023-02-03T20:57:19.504Z,78316.84
2023-02-03T20:59:46.962Z,78318.94
2023-02-03T21:02:30.793Z,78316.84
2023-02-03T21:04:58.371Z,78325.25
2023-02-03T21:07:30.809Z,78321.03
2023-02-03T21:10:00.107Z,78321.03
2023-02-03T21:12:29.827Z,78325.25
2023-02-03T21:14:57.159Z,78329.44
2023-02-03T21:17:26.536Z,78329.44
2023-02-03T21:19:54.937Z,78342.03
2023-02-03T21:22:26.843Z,78337.81
2023-02-03T21:24:55.041Z,78337.81
2023-02-03T21:27:29.833Z,78344.13
2023-02-03T21:29:57.951Z,78339.94
2023-02-03T21:32:44.917Z,78350.41
2023-02-03T21:35:28.811Z,78455.38
2023-02-03T21:38:01.822Z,78421.78
2023-02-03T21:40:34.604Z,78405.00
2023-02-03T21:43:04.843Z,78411.28
2023-02-03T21:45:42.007Z,78459.56
2023-02-03T21:48:25.152Z,78442.78
2023-02-03T21:50:53.382Z,78436.47
2023-02-03T21:53:27.650Z,78497.34
2023-02-03T21:55:55.084Z,78497.34
2023-02-03T21:58:25.875Z,78518.31
2023-02-03T22:00:54.292Z,78493.13
2023-02-03T22:03:30.554Z,78472.16
2023-02-03T22:06:09.436Z,78463.75
2023-02-03T22:08:41.101Z,78451.16
2023-02-03T22:11:08.964Z,78438.56
2023-02-03T22:13:35.763Z,78432.28
2023-02-03T22:16:02.531Z,78425.97
2023-02-03T22:18:29.245Z,78421.78
2023-02-03T22:20:56.248Z,78419.69
2023-02-03T22:23:22.981Z,78425.97
2023-02-03T22:25:49.737Z,78425.97
2023-02-03T22:28:16.412Z,78425.97
2023-02-03T22:30:43.385Z,78419.69
2023-02-03T22:33:10.450Z,78417.59
2023-02-03T22:35:37.084Z,78421.78
2023-02-03T22:38:03.756Z,78421.78
2023-02-03T22:40:30.728Z,78417.59
2023-02-03T22:42:58.047Z,78425.97
2023-02-03T22:45:24.765Z,78425.97
2023-02-03T22:47:51.493Z,78411.28
2023-02-03T22:50:24.583Z,78413.38
2023-02-03T22:52:57.970Z,78419.69
2023-02-03T22:55:24.600Z,78419.69
2023-02-03T22:57:52.570Z,78417.59
2023-02-03T23:00:21.457Z,78415.47
2023-02-03T23:02:48.463Z,78423.88
2023-02-03T23:05:15.310Z,78425.97
2023-02-03T23:07:41.980Z,78442.78
2023-02-03T23:10:11.049Z,78455.38
2023-02-03T23:12:37.904Z,78453.25
2023-02-03T23:15:05.163Z,78455.38
2023-02-03T23:17:31.926Z,78463.75
2023-02-03T23:19:58.835Z,78470.06
2023-02-03T23:22:25.826Z,78474.25
2023-02-03T23:24:52.801Z,78482.66
2023-02-03T23:27:19.512Z,78484.75
2023-02-03T23:29:46.266Z,78501.53
2023-02-03T23:32:13.133Z,78507.84
2023-02-03T23:34:58.511Z,78526.72
2023-02-03T23:37:25.042Z,78522.53
2023-02-03T23:39:52.362Z,78535.13
2023-02-03T23:42:19.229Z,78541.41
2023-02-03T23:44:46.171Z,78547.72
2023-02-03T23:47:12.986Z,78547.72
2023-02-03T23:49:39.801Z,78556.09
2023-02-03T23:52:06.581Z,78568.69
2023-02-03T23:54:33.301Z,78637.97
2023-02-03T23:56:59.861Z,78621.19
2023-02-03T23:59:26.521Z,78610.69
